Terminal Aerodrome Forecast
Issued by NWS

Home | Current Version | Previous Version | Text Only | Print | Product List | Glossary On
Versions: 1 2 3 4 5 6 7 8 9 10 11 12 13 14 15 16 17 18 19 20 21 22 23
000
FTUS44 KOUN 010532
TAFPNC
TAF
KPNC 010532Z 0106/0206 18008KT 4SM -RA BR OVC008
     FM010800 23007KT 5SM BR OVC008
     FM011200 32012KT 4SM BR OVC008
     FM011500 33020G27KT P6SM BKN015
     FM011900 33024G33KT P6SM BKN025
     FM020200 34014KT P6SM SCT030=

USA.gov is the U.S. government's official web portal to all federal, state and local government web resources and services.